createdAt,value
2024-03-11T00:02:07.519Z,45.80
2024-03-11T00:04:35.924Z,42.77
2024-03-11T00:07:04.684Z,41.43
2024-03-11T00:09:32.911Z,42.20
2024-03-11T00:12:00.733Z,43.57
2024-03-11T00:14:29.336Z,42.67
2024-03-11T00:16:56.420Z,43.20
2024-03-11T00:19:23.008Z,47.50
2024-03-11T00:21:52.996Z,44.30
2024-03-11T00:24:20.617Z,46.37
2024-03-11T00:26:46.961Z,41.70
2024-03-11T00:29:14.663Z,48.43
2024-03-11T00:31:41.347Z,45.43
2024-03-11T00:34:08.096Z,45.80
2024-03-11T00:36:34.747Z,49.63
2024-03-11T00:39:02.138Z,48.03
2024-03-11T00:41:28.670Z,50.13
2024-03-11T00:43:55.855Z,49.10
2024-03-11T00:46:23.403Z,56.33
2024-03-11T00:48:49.712Z,47.70
2024-03-11T00:51:16.448Z,46.80
2024-03-11T00:53:43.423Z,47.90
2024-03-11T00:56:10.408Z,50.07
2024-03-11T00:58:36.795Z,47.67
2024-03-11T01:01:03.652Z,47.57
2024-03-11T01:03:30.544Z,47.97
2024-03-11T01:05:57.213Z,48.00
2024-03-11T01:08:23.973Z,49.00
2024-03-11T01:10:50.933Z,50.23
2024-03-11T01:13:17.545Z,51.60
2024-03-11T01:15:44.021Z,54.10
2024-03-11T01:18:10.547Z,48.23
2024-03-11T01:20:37.688Z,51.93
2024-03-11T01:23:06.148Z,48.07
2024-03-11T01:25:32.639Z,52.87
2024-03-11T01:27:58.893Z,54.47
2024-03-11T01:30:25.313Z,54.93
2024-03-11T01:32:51.802Z,51.70
2024-03-11T01:35:18.256Z,57.13
2024-03-11T01:37:45.527Z,50.73
2024-03-11T01:40:14.239Z,54.40
2024-03-11T01:42:42.638Z,53.20
2024-03-11T01:45:09.122Z,53.70
2024-03-11T01:47:37.660Z,51.53
2024-03-11T01:50:07.562Z,51.90
2024-03-11T01:52:35.400Z,55.47
2024-03-11T01:55:03.556Z,54.10
2024-03-11T01:57:31.313Z,54.93
2024-03-11T01:59:58.760Z,54.30
2024-03-11T02:02:25.437Z,59.37
2024-03-11T02:04:52.178Z,54.47
2024-03-11T02:07:20.416Z,57.23
2024-03-11T02:09:47.536Z,57.70
2024-03-11T02:12:19.978Z,56.53
2024-03-11T02:14:46.819Z,54.57
2024-03-11T02:17:13.720Z,62.83
2024-03-11T02:19:40.820Z,54.07
2024-03-11T02:22:08.705Z,53.57
2024-03-11T02:24:35.884Z,54.33
2024-03-11T02:27:02.608Z,57.00
2024-03-11T02:29:28.971Z,54.33
2024-03-11T02:31:55.543Z,55.67
2024-03-11T02:34:21.853Z,61.17
2024-03-11T02:36:49.097Z,54.00
2024-03-11T02:39:15.888Z,57.57
2024-03-11T02:41:43.503Z,55.73
2024-03-11T02:44:10.109Z,56.93
2024-03-11T02:46:37.576Z,59.00
2024-03-11T02:49:03.820Z,58.83
2024-03-11T02:51:30.782Z,60.77
2024-03-11T02:53:57.677Z,61.07
2024-03-11T02:56:24.122Z,62.47
2024-03-11T02:58:51.186Z,63.33
2024-03-11T03:01:17.757Z,61.10
2024-03-11T03:03:44.260Z,61.63
2024-03-11T03:06:11.176Z,61.67
2024-03-11T03:08:37.526Z,69.00
2024-03-11T03:11:04.310Z,65.13
2024-03-11T03:13:30.719Z,66.60
2024-03-11T03:15:57.616Z,67.73
2024-03-11T03:18:24.294Z,64.37
2024-03-11T03:20:50.698Z,63.73
2024-03-11T03:23:17.633Z,67.30
2024-03-11T03:25:44.133Z,68.73
2024-03-11T03:28:10.527Z,66.47
2024-03-11T03:30:38.397Z,62.13
2024-03-11T03:33:05.898Z,65.03
2024-03-11T03:35:33.160Z,62.87
2024-03-11T03:38:00.291Z,65.03
2024-03-11T03:40:27.333Z,66.13
2024-03-11T03:42:54.667Z,69.03
2024-03-11T03:45:22.215Z,65.90
2024-03-11T03:47:48.672Z,68.13
2024-03-11T03:50:15.818Z,65.57
2024-03-11T03:52:42.422Z,67.37
2024-03-11T03:55:11.548Z,65.87
2024-03-11T03:57:38.014Z,70.20
2024-03-11T04:00:06.322Z,70.83
2024-03-11T04:02:32.631Z,76.27
2024-03-11T04:05:00.276Z,70.17
2024-03-11T04:07:27.245Z,66.80
2024-03-11T04:09:53.514Z,70.47
2024-03-11T04:12:20.860Z,73.07
2024-03-11T04:14:47.914Z,72.67
2024-03-11T04:17:15.255Z,73.67
2024-03-11T04:19:41.658Z,73.83
2024-03-11T04:22:07.918Z,72.07
2024-03-11T04:24:36.397Z,74.77
2024-03-11T04:27:02.808Z,74.37
2024-03-11T04:29:29.150Z,72.07
2024-03-11T04:31:56.957Z,75.60
2024-03-11T04:34:23.313Z,76.60
2024-03-11T04:36:49.833Z,79.33
2024-03-11T04:39:16.432Z,75.93
2024-03-11T04:41:44.796Z,84.17
2024-03-11T04:44:12.214Z,74.67
2024-03-11T04:46:39.029Z,77.93
2024-03-11T04:49:06.106Z,77.17
2024-03-11T04:51:32.578Z,77.63
2024-03-11T04:53:59.139Z,76.97
2024-03-11T04:56:28.605Z,75.30
2024-03-11T04:58:56.704Z,79.60
2024-03-11T05:01:23.520Z,79.40
2024-03-11T05:03:50.864Z,84.17
2024-03-11T05:06:17.200Z,79.20
2024-03-11T05:08:43.786Z,84.83
2024-03-11T05:11:10.269Z,81.67
2024-03-11T05:13:36.605Z,121.40
2024-03-11T05:16:04.380Z,97.10
2024-03-11T05:18:30.854Z,75.77
2024-03-11T05:20:58.355Z,74.77
2024-03-11T05:23:24.780Z,70.87
2024-03-11T05:25:51.708Z,71.47
2024-03-11T05:28:17.967Z,74.00
2024-03-11T05:30:44.240Z,80.57
2024-03-11T05:33:11.195Z,74.80
2024-03-11T05:35:37.651Z,73.90
2024-03-11T05:38:04.513Z,79.07
2024-03-11T05:40:30.825Z,74.87
2024-03-11T05:42:57.568Z,79.47
2024-03-11T05:45:24.076Z,78.93
2024-03-11T05:47:50.977Z,74.90
2024-03-11T05:50:21.073Z,78.73
2024-03-11T05:52:48.533Z,85.27
2024-03-11T05:55:14.956Z,80.73
2024-03-11T05:57:43.393Z,77.73
2024-03-11T06:00:10.926Z,73.13
2024-03-11T06:02:37.410Z,81.40
2024-03-11T06:05:05.125Z,88.17
2024-03-11T06:07:33.601Z,76.97
2024-03-11T06:10:00.454Z,80.27
2024-03-11T06:12:28.588Z,81.23
2024-03-11T06:14:55.495Z,77.63
2024-03-11T06:17:21.904Z,74.73
2024-03-11T06:19:48.204Z,76.67
2024-03-11T06:22:16.464Z,72.17
2024-03-11T06:24:43.795Z,76.33
2024-03-11T06:27:10.103Z,76.07
2024-03-11T06:29:36.497Z,78.37
2024-03-11T06:32:05.892Z,86.47
2024-03-11T06:34:32.411Z,79.07
2024-03-11T06:36:58.750Z,86.10
2024-03-11T06:39:25.115Z,85.33
2024-03-11T06:41:52.499Z,83.37
2024-03-11T06:44:21.392Z,84.57
2024-03-11T06:46:57.543Z,80.07
2024-03-11T06:49:24.301Z,78.77
2024-03-11T06:51:50.928Z,83.23
2024-03-11T06:54:17.206Z,81.17
2024-03-11T06:56:43.393Z,82.43
2024-03-11T06:59:10.966Z,84.77
2024-03-11T07:01:37.272Z,85.17
2024-03-11T07:04:04.669Z,86.63
2024-03-11T07:06:30.884Z,85.07
2024-03-11T07:08:57.183Z,80.17
2024-03-11T07:11:24.177Z,85.73
2024-03-11T07:13:51.571Z,80.77
2024-03-11T07:16:18.913Z,86.43
2024-03-11T07:18:45.319Z,87.43
2024-03-11T07:21:11.641Z,81.63
2024-03-11T07:23:38.163Z,80.07
2024-03-11T07:26:05.124Z,86.40
2024-03-11T07:28:32.774Z,85.60
2024-03-11T07:31:01.627Z,80.17
2024-03-11T07:33:29.104Z,79.63
2024-03-11T07:35:58.130Z,74.60
2024-03-11T07:38:25.238Z,75.50
2024-03-11T07:40:51.593Z,78.97
2024-03-11T07:43:18.122Z,77.30
2024-03-11T07:45:44.567Z,74.63
2024-03-11T07:48:12.839Z,72.03
2024-03-11T07:50:40.218Z,72.07
2024-03-11T07:53:06.690Z,72.57
2024-03-11T07:55:34.543Z,67.77
2024-03-11T07:58:01.366Z,68.50
2024-03-11T08:00:30.131Z,70.30
2024-03-11T08:02:58.177Z,64.97
2024-03-11T08:05:25.144Z,66.53
2024-03-11T08:07:52.349Z,66.70
2024-03-11T08:10:18.655Z,69.90
2024-03-11T08:12:45.797Z,70.37
2024-03-11T08:15:14.543Z,65.37
2024-03-11T08:17:42.683Z,68.40
2024-03-11T08:20:09.634Z,71.27
2024-03-11T08:22:37.838Z,63.20
2024-03-11T08:25:07.533Z,67.93
2024-03-11T08:27:34.017Z,66.27
2024-03-11T08:30:00.374Z,67.30
2024-03-11T08:32:26.971Z,65.27
2024-03-11T08:34:54.787Z,61.57
2024-03-11T08:37:21.342Z,66.80
2024-03-11T08:39:47.694Z,65.93
2024-03-11T08:42:15.228Z,66.97
2024-03-11T08:44:43.738Z,72.30
2024-03-11T08:47:13.786Z,63.70
2024-03-11T08:49:41.341Z,62.67
2024-03-11T08:52:07.653Z,64.87
2024-03-11T08:54:35.557Z,64.23
2024-03-11T08:57:02.262Z,63.43
2024-03-11T08:59:30.802Z,64.00
2024-03-11T09:01:58.019Z,59.87
2024-03-11T09:04:24.843Z,60.70
2024-03-11T09:06:51.398Z,57.47
2024-03-11T09:09:25.179Z,55.60
2024-03-11T09:11:57.159Z,56.07
2024-03-11T09:14:26.128Z,60.50
2024-03-11T09:16:53.675Z,54.17
2024-03-11T09:19:21.391Z,61.23
2024-03-11T09:21:50.231Z,53.63
2024-03-11T09:24:16.876Z,57.83
2024-03-11T09:26:43.329Z,57.77
2024-03-11T09:29:10.342Z,56.07
2024-03-11T09:31:36.792Z,59.53
2024-03-11T09:34:03.749Z,55.03
2024-03-11T09:36:32.458Z,54.77
2024-03-11T09:38:58.779Z,51.30
2024-03-11T09:41:26.891Z,56.47
2024-03-11T09:43:54.688Z,56.70
2024-03-11T09:46:21.333Z,56.33
2024-03-11T09:48:51.481Z,59.53
2024-03-11T09:51:22.216Z,56.37
2024-03-11T09:53:52.669Z,55.67
2024-03-11T09:56:21.225Z,60.17
2024-03-11T09:58:55.725Z,61.37
2024-03-11T10:01:24.736Z,59.37
2024-03-11T10:03:51.246Z,55.83
2024-03-11T10:06:19.941Z,57.20
2024-03-11T10:08:50.085Z,60.33
2024-03-11T10:11:20.895Z,59.97
2024-03-11T10:13:47.345Z,63.57
2024-03-11T10:16:15.019Z,60.27
2024-03-11T10:18:49.201Z,61.63
2024-03-11T10:21:17.676Z,72.23
2024-03-11T10:23:44.085Z,68.13
2024-03-11T10:26:17.645Z,75.93
2024-03-11T10:28:44.928Z,66.00
2024-03-11T10:31:24.516Z,71.37
2024-03-11T10:33:54.264Z,69.97
2024-03-11T10:36:23.589Z,76.60
2024-03-11T10:38:49.966Z,77.03
2024-03-11T10:41:20.880Z,70.43
2024-03-11T10:43:47.915Z,80.03
2024-03-11T10:46:18.565Z,77.03
2024-03-11T10:48:47.422Z,78.67
2024-03-11T10:51:18.783Z,77.17
2024-03-11T10:53:45.312Z,69.23
2024-03-11T10:56:20.217Z,67.33
2024-03-11T10:58:52.934Z,65.13
2024-03-11T11:01:24.860Z,75.40
2024-03-11T11:03:52.939Z,66.40
2024-03-11T11:06:27.720Z,64.67
2024-03-11T11:08:54.421Z,74.17
2024-03-11T11:11:21.184Z,71.20
2024-03-11T11:13:50.255Z,67.47
2024-03-11T11:16:18.423Z,68.87
2024-03-11T11:18:46.864Z,67.37
2024-03-11T11:21:13.973Z,67.17
2024-03-11T11:23:42.047Z,65.13
2024-03-11T11:26:08.818Z,67.37
2024-03-11T11:28:38.051Z,61.20
2024-03-11T11:31:12.262Z,60.07
2024-03-11T11:33:50.100Z,68.40
2024-03-11T11:36:49.805Z,63.37
2024-03-11T11:39:33.135Z,64.17
2024-03-11T11:41:59.753Z,65.50
2024-03-11T11:44:50.224Z,68.40
2024-03-11T11:47:20.660Z,67.97
2024-03-11T11:49:48.907Z,67.00
2024-03-11T11:52:15.523Z,63.23
2024-03-11T11:54:42.299Z,59.87
2024-03-11T11:57:12.392Z,63.40
2024-03-11T11:59:39.404Z,62.10
2024-03-11T12:02:06.805Z,49.40
2024-03-11T12:04:34.248Z,49.90
2024-03-11T12:07:03.294Z,47.63
2024-03-11T12:09:34.223Z,43.13
2024-03-11T12:12:00.536Z,33.83
2024-03-11T12:14:26.776Z,25.00
2024-03-11T12:17:05.188Z,21.20
2024-03-11T12:19:32.647Z,13.37
2024-03-11T12:21:59.645Z,11.37
2024-03-11T12:24:26.554Z,6.23
2024-03-11T12:26:53.508Z,6.50
2024-03-11T12:29:21.912Z,6.50
2024-03-11T12:31:55.201Z,6.30
2024-03-11T12:34:24.297Z,3.93
2024-03-11T12:36:50.748Z,3.70
2024-03-11T12:39:25.857Z,4.33
2024-03-11T12:41:52.539Z,2.90
2024-03-11T12:44:18.884Z,4.33
2024-03-11T12:46:46.682Z,3.10
2024-03-11T12:49:13.604Z,3.63
2024-03-11T12:51:41.195Z,6.20
2024-03-11T12:54:27.005Z,4.67
2024-03-11T12:57:06.492Z,8.57
2024-03-11T12:59:33.432Z,3.03
2024-03-11T13:02:13.533Z,3.17
2024-03-11T13:04:39.792Z,2.70
2024-03-11T13:07:06.707Z,4.63
2024-03-11T13:09:33.668Z,2.93
2024-03-11T13:12:01.950Z,3.73
2024-03-11T13:14:28.430Z,2.37
2024-03-11T13:16:55.564Z,2.03
2024-03-11T13:19:25.897Z,2.83
2024-03-11T13:21:52.668Z,2.93
2024-03-11T13:24:19.942Z,3.40
2024-03-11T13:26:49.226Z,3.30
2024-03-11T13:29:15.930Z,2.87
2024-03-11T13:31:43.735Z,3.23
2024-03-11T13:34:10.582Z,2.30
2024-03-11T13:36:38.413Z,5.63
2024-03-11T13:39:16.180Z,4.97
2024-03-11T13:41:44.673Z,5.13
2024-03-11T13:44:12.072Z,8.00
2024-03-11T13:46:38.649Z,3.07
2024-03-11T13:49:05.506Z,3.20
2024-03-11T13:51:32.213Z,3.47
2024-03-11T13:53:58.484Z,2.57
2024-03-11T13:56:25.114Z,2.50
2024-03-11T13:58:51.441Z,5.37
2024-03-11T14:01:18.694Z,8.20
2024-03-11T14:03:45.344Z,6.57
2024-03-11T14:06:12.916Z,4.10
2024-03-11T14:08:39.528Z,2.83
2024-03-11T14:11:06.020Z,4.13
2024-03-11T14:13:33.523Z,3.93
2024-03-11T14:16:00.792Z,9.30
2024-03-11T14:18:27.800Z,8.20
2024-03-11T14:20:54.151Z,3.83
2024-03-11T14:23:20.469Z,5.20
2024-03-11T14:25:46.833Z,3.33
2024-03-11T14:28:13.422Z,7.43
2024-03-11T14:30:41.338Z,7.00
2024-03-11T14:33:07.767Z,3.53
2024-03-11T14:35:35.932Z,5.63
2024-03-11T14:38:02.492Z,3.40
2024-03-11T14:40:32.059Z,3.63
2024-03-11T14:42:58.627Z,7.93
2024-03-11T14:45:25.782Z,3.43
2024-03-11T14:47:52.459Z,7.17
2024-03-11T14:50:18.954Z,8.80
2024-03-11T14:52:46.025Z,4.87
2024-03-11T14:55:12.295Z,4.60
2024-03-11T14:57:42.446Z,4.47
2024-03-11T15:00:14.152Z,6.37
2024-03-11T15:02:43.163Z,8.00
2024-03-11T15:05:09.992Z,5.17
2024-03-11T15:07:37.960Z,4.80
2024-03-11T15:10:06.493Z,6.17
2024-03-11T15:12:34.974Z,4.23
2024-03-11T15:15:01.305Z,3.27
2024-03-11T15:17:27.719Z,3.57
2024-03-11T15:19:55.789Z,3.10
2024-03-11T15:22:22.141Z,6.67
2024-03-11T15:24:48.957Z,7.93
2024-03-11T15:27:16.009Z,3.87
2024-03-11T15:29:42.942Z,3.93
2024-03-11T15:32:12.240Z,3.90
2024-03-11T15:34:42.000Z,3.47
2024-03-11T15:37:08.558Z,4.73
2024-03-11T15:39:39.299Z,5.97
2024-03-11T15:42:06.787Z,5.50
2024-03-11T15:44:34.908Z,3.27
2024-03-11T15:47:03.675Z,5.03
2024-03-11T15:49:32.565Z,3.20
2024-03-11T15:52:00.718Z,4.73
2024-03-11T15:54:27.110Z,4.50
2024-03-11T15:56:53.418Z,4.33
2024-03-11T15:59:20.853Z,7.00
2024-03-11T16:01:48.264Z,3.70
2024-03-11T16:04:17.131Z,3.33
2024-03-11T16:06:45.959Z,2.87
2024-03-11T16:09:13.013Z,2.10
2024-03-11T16:11:39.175Z,1.60
2024-03-11T16:14:05.476Z,16.97
2024-03-11T16:16:31.452Z,4.00
2024-03-11T16:18:58.426Z,3.60
2024-03-11T16:21:25.243Z,2.77
2024-03-11T16:23:52.188Z,3.27
2024-03-11T16:26:18.574Z,2.43
2024-03-11T16:28:44.948Z,2.80
2024-03-11T16:31:12.635Z,3.40
2024-03-11T16:33:40.233Z,2.30
2024-03-11T16:36:10.240Z,3.80
2024-03-11T16:38:36.579Z,3.07
2024-03-11T16:41:02.643Z,4.03
2024-03-11T16:43:29.946Z,2.80
2024-03-11T16:45:56.070Z,7.47
2024-03-11T16:48:24.266Z,3.13
2024-03-11T16:50:52.302Z,4.87
2024-03-11T16:53:21.289Z,4.57
2024-03-11T16:55:47.335Z,4.20
2024-03-11T16:58:16.779Z,3.20
2024-03-11T17:00:48.077Z,2.93
2024-03-11T17:03:14.145Z,2.20
2024-03-11T17:05:40.507Z,3.40
2024-03-11T17:08:08.548Z,3.87
2024-03-11T17:10:36.198Z,2.83
2024-03-11T17:13:07.610Z,4.77
2024-03-11T17:15:35.482Z,2.87
2024-03-11T17:18:02.002Z,5.67
2024-03-11T17:20:33.815Z,7.97
2024-03-11T17:23:02.801Z,3.73
2024-03-11T17:25:30.461Z,4.23
2024-03-11T17:28:03.975Z,5.33
2024-03-11T17:30:32.141Z,4.53
2024-03-11T17:33:08.111Z,4.10
2024-03-11T17:35:34.997Z,3.93
2024-03-11T17:38:02.341Z,4.33
2024-03-11T17:40:28.994Z,5.27
2024-03-11T17:42:55.125Z,3.30
2024-03-11T17:45:23.343Z,5.67
2024-03-11T17:47:49.405Z,5.67
2024-03-11T17:50:17.948Z,3.50
2024-03-11T17:52:48.288Z,4.17
2024-03-11T17:55:15.070Z,3.20
2024-03-11T17:57:42.865Z,4.00
2024-03-11T18:00:11.448Z,5.73
2024-03-11T18:02:39.565Z,3.07
2024-03-11T18:05:06.550Z,4.17
2024-03-11T18:07:35.864Z,3.30
2024-03-11T18:10:04.353Z,3.10
2024-03-11T18:12:31.885Z,6.77
2024-03-11T18:14:58.068Z,4.40
2024-03-11T18:17:24.331Z,5.93
2024-03-11T18:19:50.960Z,6.47
2024-03-11T18:22:18.718Z,6.30
2024-03-11T18:24:45.216Z,6.20
2024-03-11T18:27:11.642Z,7.67
2024-03-11T18:29:39.261Z,5.67
2024-03-11T18:32:10.314Z,5.80
2024-03-11T18:34:37.646Z,9.30
2024-03-11T18:37:06.069Z,6.30
2024-03-11T18:39:33.216Z,7.37
2024-03-11T18:41:59.574Z,8.17
2024-03-11T18:44:25.977Z,6.07
2024-03-11T18:46:52.824Z,7.07
2024-03-11T18:49:19.375Z,8.33
2024-03-11T18:51:45.706Z,7.77
2024-03-11T18:54:12.652Z,10.27
2024-03-11T18:56:42.398Z,7.67
2024-03-11T18:59:08.763Z,6.73
2024-03-11T19:01:36.041Z,10.73
2024-03-11T19:04:03.564Z,8.73
2024-03-11T19:06:29.879Z,7.93
2024-03-11T19:08:57.548Z,11.97
2024-03-11T19:11:26.169Z,8.20
2024-03-11T19:13:53.371Z,10.33
2024-03-11T19:16:20.502Z,8.70
2024-03-11T19:18:46.985Z,10.63
2024-03-11T19:21:14.283Z,8.43
2024-03-11T19:23:42.937Z,7.03
2024-03-11T19:26:11.336Z,8.97
2024-03-11T19:28:38.364Z,10.73
2024-03-11T19:31:05.256Z,9.47
2024-03-11T19:33:32.843Z,14.00
2024-03-11T19:35:59.330Z,11.00
2024-03-11T19:38:39.991Z,10.07
2024-03-11T19:41:10.536Z,11.20
2024-03-11T19:44:12.849Z,12.70
2024-03-11T19:47:17.031Z,13.33
2024-03-11T19:50:12.565Z,13.60
2024-03-11T19:53:17.908Z,16.57
2024-03-11T19:56:06.494Z,11.10
2024-03-11T19:59:09.951Z,10.43
2024-03-11T20:02:22.548Z,11.83
2024-03-11T20:05:10.026Z,11.23
2024-03-11T20:07:54.810Z,9.57
2024-03-11T20:10:48.846Z,15.73
2024-03-11T20:13:52.458Z,8.60
2024-03-11T20:16:52.157Z,10.43
2024-03-11T20:19:32.945Z,15.13
2024-03-11T20:22:18.957Z,8.67
2024-03-11T20:25:19.195Z,12.10
2024-03-11T20:27:52.680Z,10.03
2024-03-11T20:30:21.805Z,9.90
2024-03-11T20:33:02.407Z,8.60
2024-03-11T20:35:28.860Z,9.90
2024-03-11T20:37:55.791Z,10.80
2024-03-11T20:40:22.590Z,10.67
2024-03-11T20:42:48.836Z,7.87
2024-03-11T20:45:15.118Z,9.90
2024-03-11T20:47:41.724Z,7.40
2024-03-11T20:50:10.639Z,10.20
2024-03-11T20:52:38.700Z,6.63
2024-03-11T20:55:10.979Z,9.77
2024-03-11T20:57:38.824Z,7.97
2024-03-11T21:00:16.782Z,11.10
2024-03-11T21:02:43.411Z,7.97
2024-03-11T21:05:10.439Z,7.67
2024-03-11T21:07:38.133Z,10.07
2024-03-11T21:10:06.188Z,12.43
2024-03-11T21:12:33.051Z,11.03
2024-03-11T21:14:59.345Z,12.37
2024-03-11T21:17:27.691Z,12.77
2024-03-11T21:20:06.391Z,11.17
2024-03-11T21:22:37.043Z,14.87
2024-03-11T21:25:18.150Z,14.57
2024-03-11T21:27:50.142Z,13.57
2024-03-11T21:30:17.964Z,15.33
2024-03-11T21:32:45.196Z,13.20
2024-03-11T21:35:12.348Z,16.07
2024-03-11T21:37:38.664Z,16.53
2024-03-11T21:40:10.532Z,11.37
2024-03-11T21:42:37.586Z,13.07
2024-03-11T21:45:06.899Z,11.03
2024-03-11T21:47:33.471Z,13.00
2024-03-11T21:50:00.179Z,11.60
2024-03-11T21:52:26.604Z,8.67
2024-03-11T21:54:52.963Z,11.77
2024-03-11T21:57:20.680Z,10.73
2024-03-11T21:59:49.625Z,8.33
2024-03-11T22:02:22.567Z,11.53
2024-03-11T22:04:50.967Z,9.33
2024-03-11T22:07:17.339Z,9.23
2024-03-11T22:09:44.069Z,11.63
2024-03-11T22:12:10.406Z,12.03
2024-03-11T22:14:37.564Z,10.53
2024-03-11T22:17:04.912Z,11.20
2024-03-11T22:19:32.102Z,11.23
2024-03-11T22:21:58.567Z,13.27
2024-03-11T22:24:25.065Z,15.27
2024-03-11T22:26:51.345Z,13.23
2024-03-11T22:29:17.671Z,12.23
2024-03-11T22:31:45.332Z,14.77
2024-03-11T22:34:14.968Z,16.83
2024-03-11T22:36:43.310Z,14.97
2024-03-11T22:39:10.094Z,15.67
2024-03-11T22:41:37.083Z,14.70
2024-03-11T22:44:04.172Z,14.57
2024-03-11T22:46:30.858Z,16.20
2024-03-11T22:49:06.009Z,14.40
2024-03-11T22:51:36.314Z,15.07
2024-03-11T22:54:03.577Z,18.23
2024-03-11T22:56:30.528Z,19.13
2024-03-11T22:58:57.255Z,19.93
2024-03-11T23:01:29.455Z,21.50
2024-03-11T23:03:56.532Z,20.83
2024-03-11T23:06:23.748Z,18.83
2024-03-11T23:08:51.208Z,22.20
2024-03-11T23:11:19.799Z,24.23
2024-03-11T23:13:50.219Z,21.77
2024-03-11T23:16:18.232Z,22.73
2024-03-11T23:18:44.735Z,22.30
2024-03-11T23:21:16.233Z,23.83
2024-03-11T23:23:42.901Z,32.40
2024-03-11T23:26:11.311Z,28.50
2024-03-11T23:28:39.292Z,32.60
2024-03-11T23:31:05.957Z,26.93
2024-03-11T23:33:32.509Z,27.57
2024-03-11T23:35:58.824Z,34.80
2024-03-11T23:38:25.965Z,27.90
2024-03-11T23:40:52.653Z,31.23
2024-03-11T23:43:19.248Z,35.00
2024-03-11T23:45:47.651Z,31.37
2024-03-11T23:48:14.054Z,31.83
2024-03-11T23:50:40.828Z,36.90
2024-03-11T23:53:07.605Z,34.37
2024-03-11T23:55:33.930Z,38.07
2024-03-11T23:58:00.338Z,46.83
